createdAt,value
2022-10-18T06:51:15.550Z,15.57
2022-10-18T06:53:53.510Z,16.43
2022-10-18T06:56:32.611Z,15.10
2022-10-18T06:59:00.983Z,16.27
2022-10-18T07:01:29.867Z,17.07
2022-10-18T07:03:58.654Z,18.03
2022-10-18T07:06:28.510Z,22.30
2022-10-18T07:08:57.324Z,20.10
2022-10-18T07:11:27.081Z,22.03
2022-10-18T07:14:01.319Z,23.90
2022-10-18T07:16:29.901Z,24.93
2022-10-18T07:18:58.635Z,26.33
2022-10-18T07:21:28.625Z,24.07
2022-10-18T07:23:57.712Z,22.20
2022-10-18T07:26:29.314Z,20.40
2022-10-18T07:29:00.531Z,17.70
2022-10-18T07:31:29.885Z,17.57
2022-10-18T07:33:58.166Z,16.93
2022-10-18T07:36:28.616Z,16.23
2022-10-18T07:38:56.759Z,16.00
2022-10-18T07:41:25.257Z,15.13
2022-10-18T07:43:54.730Z,16.03
2022-10-18T07:46:24.009Z,14.60
2022-10-18T07:48:52.980Z,13.13
2022-10-18T07:51:22.437Z,14.17
2022-10-18T07:53:52.813Z,12.50
2022-10-18T07:56:22.619Z,13.20
2022-10-18T07:58:53.320Z,13.40
2022-10-18T08:01:22.549Z,14.23
2022-10-18T08:03:51.805Z,14.83
2022-10-18T08:06:22.026Z,13.97
2022-10-18T08:08:53.406Z,15.70
2022-10-18T08:11:23.793Z,16.70
2022-10-18T08:13:53.332Z,19.27
2022-10-18T08:16:24.397Z,19.03
2022-10-18T08:18:53.289Z,21.03
2022-10-18T08:21:23.144Z,19.10
2022-10-18T08:23:54.031Z,17.00
2022-10-18T08:26:23.916Z,17.20
2022-10-18T08:28:58.400Z,16.03
2022-10-18T08:31:38.370Z,14.27
2022-10-18T08:34:06.654Z,12.13
2022-10-18T08:36:35.022Z,11.67
2022-10-18T08:39:05.155Z,10.43
2022-10-18T08:41:53.811Z,10.20
2022-10-18T08:44:24.382Z,9.00
2022-10-18T08:46:56.629Z,7.90
2022-10-18T08:49:29.940Z,8.90
2022-10-18T08:51:58.950Z,9.60
2022-10-18T08:54:38.825Z,8.30
2022-10-18T08:57:16.094Z,6.90
2022-10-18T08:59:44.605Z,6.97
2022-10-18T09:02:30.663Z,6.80
2022-10-18T09:05:06.531Z,6.53
2022-10-18T09:08:00.726Z,5.83
2022-10-18T09:10:43.693Z,6.30
2022-10-18T09:13:32.526Z,6.50
2022-10-18T09:16:02.163Z,6.60
2022-10-18T09:18:47.142Z,6.67
2022-10-18T09:21:22.930Z,6.87
2022-10-18T09:23:58.724Z,6.90
2022-10-18T09:26:28.453Z,6.73
2022-10-18T09:29:10.176Z,6.73
2022-10-18T09:31:47.234Z,6.60
2022-10-18T09:34:22.110Z,6.83
2022-10-18T09:36:53.430Z,6.50
2022-10-18T09:39:27.078Z,5.53
2022-10-18T09:42:01.576Z,5.47
2022-10-18T09:44:34.830Z,5.50
2022-10-18T09:47:11.327Z,5.67
2022-10-18T09:49:45.468Z,6.33
2022-10-18T09:52:19.423Z,6.17
2022-10-18T09:54:52.086Z,4.65
2022-10-18T09:57:27.806Z,4.60
2022-10-18T09:59:56.023Z,5.00
2022-10-18T10:02:25.625Z,6.25
2022-10-18T10:04:56.410Z,4.63
2022-10-18T10:07:31.064Z,4.60
2022-10-18T10:10:14.648Z,5.35
2022-10-18T10:12:44.793Z,5.68
2022-10-18T10:15:20.676Z,5.72
2022-10-18T10:17:57.589Z,6.95
2022-10-18T10:20:30.275Z,4.38
2022-10-18T10:23:08.919Z,5.47
2022-10-18T10:25:39.577Z,5.53
2022-10-18T10:28:15.509Z,5.30
2022-10-18T10:30:44.121Z,5.30
2022-10-18T10:33:33.610Z,5.38
2022-10-18T10:36:03.877Z,5.25
2022-10-18T10:38:32.757Z,4.93
2022-10-18T10:41:01.628Z,4.68
2022-10-18T10:43:38.834Z,4.18
2022-10-18T10:46:11.197Z,5.25
2022-10-18T10:48:49.313Z,5.25
2022-10-18T10:51:19.396Z,4.90
2022-10-18T10:53:58.943Z,4.50
2022-10-18T10:56:29.188Z,4.32
2022-10-18T10:59:07.901Z,3.75
2022-10-18T11:01:36.693Z,3.90
2022-10-18T11:04:25.638Z,4.40
2022-10-18T11:07:08.132Z,4.38
2022-10-18T11:09:58.287Z,3.92
2022-10-18T11:12:33.513Z,3.78
2022-10-18T11:15:22.170Z,2.70
2022-10-18T11:18:02.158Z,2.63
2022-10-18T11:20:36.365Z,3.38
2022-10-18T11:23:08.525Z,3.55
2022-10-18T11:26:04.306Z,3.30
2022-10-18T11:28:47.200Z,3.40
2022-10-18T11:31:23.291Z,4.30
2022-10-18T11:34:09.170Z,3.60
2022-10-18T11:36:56.279Z,3.75
2022-10-18T11:39:41.968Z,4.85
2022-10-18T11:42:18.223Z,4.50
2022-10-18T11:44:56.979Z,4.22
2022-10-18T11:47:37.276Z,4.55
2022-10-18T11:50:14.133Z,4.30
2022-10-18T11:52:58.949Z,4.53
2022-10-18T11:55:49.425Z,5.00
2022-10-18T11:58:46.972Z,5.32
2022-10-18T12:01:28.434Z,5.22
2022-10-18T12:04:05.955Z,5.00
2022-10-18T12:06:40.791Z,4.78
2022-10-18T12:09:21.387Z,4.57
2022-10-18T12:11:55.711Z,4.75
2022-10-18T12:14:30.399Z,4.38
2022-10-18T12:17:35.529Z,5.00
2022-10-18T12:19:59.443Z,4.95
2022-10-18T12:22:32.080Z,4.70
2022-10-18T12:25:01.873Z,4.13
2022-10-18T12:27:36.423Z,4.70
2022-10-18T12:30:12.582Z,3.75
2022-10-18T12:32:56.382Z,2.88
2022-10-18T12:35:36.981Z,3.35
2022-10-18T12:38:19.256Z,4.38
2022-10-18T12:40:50.719Z,3.80
2022-10-18T12:43:22.680Z,4.50
2022-10-18T12:45:54.252Z,4.70
2022-10-18T12:48:38.799Z,4.38
2022-10-18T12:51:16.494Z,3.83
2022-10-18T12:53:47.262Z,4.72
2022-10-18T12:56:38.241Z,3.67
2022-10-18T12:59:49.137Z,4.40
2022-10-18T13:02:38.579Z,4.10
2022-10-18T13:05:52.016Z,3.70
2022-10-18T13:09:10.432Z,4.00
2022-10-18T13:11:40.634Z,3.92
2022-10-18T13:14:35.718Z,4.20
2022-10-18T13:17:14.660Z,3.90
2022-10-18T13:20:20.536Z,3.30
2022-10-18T13:22:59.231Z,3.92
2022-10-18T13:25:34.088Z,3.70
2022-10-18T13:28:18.903Z,4.80
2022-10-18T13:30:55.512Z,4.10
2022-10-18T13:33:32.754Z,5.13
2022-10-18T13:36:02.643Z,5.70
2022-10-18T13:38:49.661Z,4.65
2022-10-18T13:41:20.739Z,4.63
2022-10-18T13:44:11.073Z,4.50
2022-10-18T13:47:19.033Z,5.25
2022-10-18T13:50:04.690Z,5.35
2022-10-18T13:52:50.551Z,5.13
2022-10-18T13:55:37.921Z,4.95
2022-10-18T13:58:15.779Z,5.00
2022-10-18T14:00:56.980Z,4.65
2022-10-18T14:04:02.457Z,4.60
2022-10-18T14:06:38.089Z,3.95
2022-10-18T14:09:19.684Z,3.70
2022-10-18T14:11:57.761Z,3.95
2022-10-18T14:14:37.240Z,4.00
2022-10-18T14:17:18.134Z,3.58
2022-10-18T14:19:50.416Z,6.65
2022-10-18T14:22:24.024Z,4.10
2022-10-18T14:24:55.410Z,4.07
2022-10-18T14:27:25.308Z,4.03
2022-10-18T14:30:14.618Z,3.53
2022-10-18T14:32:48.383Z,4.43
2022-10-18T14:35:37.896Z,4.30
2022-10-18T14:38:14.908Z,3.58
2022-10-18T14:40:43.327Z,3.40
2022-10-18T14:43:14.195Z,3.65
2022-10-18T14:45:43.165Z,3.92
2022-10-18T14:48:18.202Z,4.53
2022-10-18T14:50:49.672Z,4.07
2022-10-18T14:53:21.399Z,5.07
2022-10-18T14:56:00.776Z,4.65
2022-10-18T14:58:30.575Z,4.43
2022-10-18T15:00:59.820Z,4.30
2022-10-18T15:03:33.212Z,4.85
2022-10-18T15:06:03.840Z,4.60
2022-10-18T15:08:39.064Z,4.55
2022-10-18T15:11:10.617Z,4.30
2022-10-18T15:13:47.975Z,4.40
2022-10-18T15:16:18.823Z,4.20
2022-10-18T15:19:03.644Z,3.80
2022-10-18T15:21:32.258Z,4.45
2022-10-18T15:24:21.831Z,3.83
2022-10-18T15:26:51.421Z,2.97
2022-10-18T15:29:21.218Z,3.00
2022-10-18T15:31:51.166Z,3.17
2022-10-18T15:34:23.802Z,3.63
2022-10-18T15:36:53.389Z,3.80
2022-10-18T15:39:23.201Z,3.63
2022-10-18T15:41:52.925Z,3.38
2022-10-18T15:44:24.559Z,3.45
2022-10-18T15:46:55.517Z,2.83
2022-10-18T15:49:55.417Z,3.00
2022-10-18T15:54:55.520Z,3.35
2022-10-18T15:57:26.722Z,3.27
